Time;durP1;ratioP1;P1;durP2;ratioP2;P2;SDS_P1;SDS_P2;PMS_P1;PMS_P2;Temp;Humidity;BMP_temperature;BMP_pressure;BME280_temperature;BME280_humidity;BME280_pressure;Samples;Min_cycle;Max_cycle;Signal;HPM_P1;HPM_P2
2023/11/13 00:00:28;;;;;;;;;;;;;;;;;;2192810;67;3476;-27
2023/11/13 00:02:58;;;;;;;;;;;;;;;;;;2193596;59;3315;-27
2023/11/13 00:05:29;;;;;;;;;;;;;;;;;;2191316;59;3486;-28
2023/11/13 00:07:59;;;;;;;;;;;;;;;;;;2198944;67;2655;-27
2023/11/13 00:10:30;;;;;;;;;;;;;;;;;;2192046;67;3047;-27
2023/11/13 00:13:01;;;;;;;;;;;;;;;;;;2193576;67;3451;-27
2023/11/13 00:15:32;;;;;;;;;;;;;;;;;;2191593;67;2481;-27
2023/11/13 00:18:02;;;;;;;;;;;;;;;;;;2192603;59;2828;-27
2023/11/13 00:20:32;;;;;;;;;;;;;;;;;;2192263;67;2520;-27
2023/11/13 00:23:02;;;;;;;;;;;;;;;;;;2193440;59;1814;-27
2023/11/13 00:25:33;;;;;;;;;;;;;;;;;;2192420;67;2906;-27
2023/11/13 00:28:03;;;;;;;;;;;;;;;;;;2195768;59;4178;-27
2023/11/13 00:30:33;;;;;;;;;;;;;;;;;;2192550;59;3448;-27
2023/11/13 00:33:03;;;;;;;;;;;;;;;;;;2193508;59;4053;-27
2023/11/13 00:35:33;;;;;;;;;;;;;;;;;;2192059;59;3634;-28
2023/11/13 00:38:04;;;;;;;;;;;;;;;;;;2193531;67;3101;-27
2023/11/13 00:40:34;;;;;;;;;;;;;;;;;;2192359;59;3064;-28
2023/11/13 00:43:05;;;;;;;;;;;;;;;;;;2199125;67;3846;-28
2023/11/13 00:45:35;;;;;;;;;;;;;;;;;;2191521;59;2504;-28
2023/11/13 00:48:05;;;;;;;;;;;;;;;;;;2193080;67;2362;-28
2023/11/13 00:50:36;;;;;;;;;;;;;;;;;;2191835;59;3203;-28
2023/11/13 00:53:06;;;;;;;;;;;;;;;;;;2193692;67;2909;-27
2023/11/13 00:55:36;;;;;;;;;;;;;;;;;;2191242;67;4168;-28
2023/11/13 00:58:06;;;;;;;;;;;;;;;;;;2193993;67;3857;-27
2023/11/13 01:00:37;;;;;;;;;;;;;;;;;;2192169;59;2614;-27
2023/11/13 01:03:07;;;;;;;;;;;;;;;;;;2193562;59;2802;-29
2023/11/13 01:05:37;;;;;;;;;;;;;;;;;;2192330;67;2880;-29
2023/11/13 01:08:08;;;;;;;;;;;;;;;;;;2198955;67;2157;-27
2023/11/13 01:10:39;;;;;;;;;;;;;;;;;;2192293;67;2428;-28
2023/11/13 01:13:09;;;;;;;;;;;;;;;;;;2193532;67;2706;-28
2023/11/13 01:15:41;;;;;;;;;;;;;;;;;;2191990;67;1977;-27
2023/11/13 01:18:13;;;;;;;;;;;;;;;;;;2199045;67;2624;-27
2023/11/13 01:20:47;;;;;;;;;;;;;;;;;;2192156;59;2245;-27
2023/11/13 01:23:17;;;;;;;;;;;;;;;;;;2193662;67;1832;-27
2023/11/13 01:25:47;;;;;;;;;;;;;;;;;;2197081;67;3035;-27
2023/11/13 01:28:18;;;;;;;;;;;;;;;;;;2193728;59;4324;-27
2023/11/13 01:30:48;;;;;;;;;;;;;;;;;;2192227;59;2339;-28
2023/11/13 01:33:21;;;;;;;;;;;;;;;;;;2193137;59;2250;-27
2023/11/13 01:35:51;;;;;;;;;;;;;;;;;;2191984;59;2267;-27
2023/11/13 01:38:22;;;;;;;;;;;;;;;;;;2193075;67;1682;-28
2023/11/13 01:40:52;;;;;;;;;;;;;;;;;;2192476;59;2692;-28
2023/11/13 01:43:22;;;;;;;;;;;;;;;;;;2192765;59;2083;-27
2023/11/13 01:45:54;;;;;;;;;;;;;;;;;;2191640;67;2659;-27
2023/11/13 01:48:25;;;;;;;;;;;;;;;;;;2193214;67;2336;-28
2023/11/13 01:50:56;;;;;;;;;;;;;;;;;;2192437;67;2955;-27
2023/11/13 01:53:26;;;;;;;;;;;;;;;;;;2192994;67;2341;-28
2023/11/13 01:55:57;;;;;;;;;;;;;;;;;;2191938;67;2812;-28
2023/11/13 01:58:27;;;;;;;;;;;;;;;;;;2193831;67;2462;-28
2023/11/13 02:00:57;;;;;;;;;;;;;;;;;;2191694;59;1877;-27
2023/11/13 02:03:28;;;;;;;;;;;;;;;;;;2193109;59;2350;-27
2023/11/13 02:05:59;;;;;;;;;;;;;;;;;;2192162;67;2823;-26
2023/11/13 02:08:29;;;;;;;;;;;;;;;;;;2193653;67;2218;-25
2023/11/13 02:11:00;;;;;;;;;;;;;;;;;;2197825;67;2791;-26
2023/11/13 02:13:31;;;;;;;;;;;;;;;;;;2198574;67;1815;-25
2023/11/13 02:16:01;;;;;;;;;;;;;;;;;;2198182;67;4596;-26
2023/11/13 02:18:35;;;;;;;;;;;;;;;;;;2191983;59;2687;-26
2023/11/13 02:21:05;;;;;;;;;;;;;;;;;;2192092;59;2668;-26
2023/11/13 02:23:35;;;;;;;;;;;;;;;;;;2191640;67;2798;-25
2023/11/13 02:26:14;;;;;;;;;;;;;;;;;;2190063;67;2388;-26
2023/11/13 02:28:44;;;;;;;;;;;;;;;;;;2193197;59;2882;-25
2023/11/13 02:31:15;;;;;;;;;;;;;;;;;;2194281;67;2500;-25
2023/11/13 02:33:45;;;;;;;;;;;;;;;;;;2192118;59;2279;-25
2023/11/13 02:36:16;;;;;;;;;;;;;;;;;;2199425;59;2462;-25
2023/11/13 02:38:47;;;;;;;;;;;;;;;;;;2192735;59;1813;-25
2023/11/13 02:41:17;;;;;;;;;;;;;;;;;;2194061;59;2799;-26
2023/11/13 02:43:47;;;;;;;;;;;;;;;;;;2192686;59;2407;-26
2023/11/13 02:46:17;;;;;;;;;;;;;;;;;;2193861;67;2869;-26
2023/11/13 02:48:48;;;;;;;;;;;;;;;;;;2193082;67;2821;-26
2023/11/13 02:51:18;;;;;;;;;;;;;;;;;;2194002;59;2505;-26
2023/11/13 02:53:48;;;;;;;;;;;;;;;;;;2191750;59;3551;-26
2023/11/13 02:56:18;;;;;;;;;;;;;;;;;;2194008;67;3782;-28
2023/11/13 02:58:49;;;;;;;;;;;;;;;;;;2198225;59;2144;-26
2023/11/13 03:01:19;;;;;;;;;;;;;;;;;;2194289;67;1950;-26
2023/11/13 03:03:49;;;;;;;;;;;;;;;;;;2191986;59;2729;-26
2023/11/13 03:06:22;;;;;;;;;;;;;;;;;;2193857;67;1879;-26
2023/11/13 03:08:52;;;;;;;;;;;;;;;;;;2192195;60;2471;-26
2023/11/13 03:11:23;;;;;;;;;;;;;;;;;;2193868;67;2375;-26
2023/11/13 03:13:53;;;;;;;;;;;;;;;;;;2192611;59;3384;-26
2023/11/13 03:16:23;;;;;;;;;;;;;;;;;;2193213;67;2588;-26
2023/11/13 03:18:53;;;;;;;;;;;;;;;;;;2188984;67;2923;-26
2023/11/13 03:21:24;;;;;;;;;;;;;;;;;;2199139;59;3504;-26
2023/11/13 03:23:54;;;;;;;;;;;;;;;;;;2191786;60;1951;-26
2023/11/13 03:26:28;;;;;;;;;;;;;;;;;;2193780;67;1861;-26
2023/11/13 03:28:58;;;;;;;;;;;;;;;;;;2192548;59;3887;-26
2023/11/13 03:31:28;;;;;;;;;;;;;;;;;;2194014;67;1943;-26
2023/11/13 03:33:59;;;;;;;;;;;;;;;;;;2192209;59;4075;-26
2023/11/13 03:36:29;;;;;;;;;;;;;;;;;;2193707;59;1827;-26
2023/11/13 03:39:00;;;;;;;;;;;;;;;;;;2191975;59;1949;-24
2023/11/13 03:41:32;;;;;;;;;;;;;;;;;;2194002;59;4226;-24
2023/11/13 03:44:03;;;;;;;;;;;;;;;;;;2191729;59;4139;-25
2023/11/13 03:46:33;;;;;;;;;;;;;;;;;;2193615;67;1846;-24
2023/11/13 03:49:03;;;;;;;;;;;;;;;;;;2192133;67;2118;-24
2023/11/13 03:51:34;;;;;;;;;;;;;;;;;;2193183;67;2183;-24
2023/11/13 03:54:04;;;;;;;;;;;;;;;;;;2192237;59;3388;-24
2023/11/13 03:56:34;;;;;;;;;;;;;;;;;;2198752;67;4203;-24
2023/11/13 03:59:04;;;;;;;;;;;;;;;;;;2189036;67;2103;-24
2023/11/13 04:01:35;;;;;;;;;;;;;;;;;;2199435;67;2032;-24
2023/11/13 04:04:05;;;;;;;;;;;;;;;;;;2197790;59;2457;-24
2023/11/13 04:06:35;;;;;;;;;;;;;;;;;;2193832;67;2344;-24
2023/11/13 04:09:06;;;;;;;;;;;;;;;;;;2191703;67;3281;-25
2023/11/13 04:11:36;;;;;;;;;;;;;;;;;;2192811;67;2413;-24
2023/11/13 04:14:06;;;;;;;;;;;;;;;;;;2192815;59;3965;-24
2023/11/13 04:16:38;;;;;;;;;;;;;;;;;;2192995;67;2687;-24
2023/11/13 04:19:08;;;;;;;;;;;;;;;;;;2192719;59;3449;-24
2023/11/13 04:21:39;;;;;;;;;;;;;;;;;;2193114;59;1913;-24
2023/11/13 04:24:09;;;;;;;;;;;;;;;;;;2198596;67;2909;-24
2023/11/13 04:26:39;;;;;;;;;;;;;;;;;;2192092;67;1957;-25
2023/11/13 04:29:09;;;;;;;;;;;;;;;;;;2193702;59;2318;-24
2023/11/13 04:31:40;;;;;;;;;;;;;;;;;;2193283;59;2197;-24
2023/11/13 04:34:10;;;;;;;;;;;;;;;;;;2193123;67;2267;-24
2023/11/13 04:36:41;;;;;;;;;;;;;;;;;;2198163;59;3802;-24
2023/11/13 04:39:12;;;;;;;;;;;;;;;;;;2193319;59;2128;-25
2023/11/13 04:41:43;;;;;;;;;;;;;;;;;;2193010;67;1796;-24
2023/11/13 04:44:13;;;;;;;;;;;;;;;;;;2198342;59;2962;-24
2023/11/13 04:46:43;;;;;;;;;;;;;;;;;;2197828;59;2379;-25
2023/11/13 04:49:14;;;;;;;;;;;;;;;;;;2193250;67;2926;-24
2023/11/13 04:51:44;;;;;;;;;;;;;;;;;;2195009;67;3005;-24
2023/11/13 04:54:14;;;;;;;;;;;;;;;;;;2192740;67;3495;-24
2023/11/13 04:56:44;;;;;;;;;;;;;;;;;;2192612;67;2964;-24
2023/11/13 04:59:14;;;;;;;;;;;;;;;;;;2193302;59;2045;-24
2023/11/13 05:01:46;;;;;;;;;;;;;;;;;;2197982;67;3135;-24
2023/11/13 05:04:16;;;;;;;;;;;;;;;;;;2193553;59;2480;-24
2023/11/13 05:06:46;;;;;;;;;;;;;;;;;;2192374;59;2130;-25
2023/11/13 05:09:18;;;;;;;;;;;;;;;;;;2193284;67;1773;-25
2023/11/13 05:11:49;;;;;;;;;;;;;;;;;;2191902;67;2728;-25
2023/11/13 05:14:19;;;;;;;;;;;;;;;;;;2193288;67;2474;-25
2023/11/13 05:16:53;;;;;;;;;;;;;;;;;;2192649;59;3271;-25
2023/11/13 05:19:23;;;;;;;;;;;;;;;;;;2193822;59;3868;-25
2023/11/13 05:21:54;;;;;;;;;;;;;;;;;;2192205;59;4048;-27
2023/11/13 05:24:25;;;;;;;;;;;;;;;;;;2193662;67;1789;-25
2023/11/13 05:26:55;;;;;;;;;;;;;;;;;;2192807;67;4197;-25
2023/11/13 05:29:26;;;;;;;;;;;;;;;;;;2193309;59;3458;-26
2023/11/13 05:31:56;;;;;;;;;;;;;;;;;;2191519;59;2221;-28
2023/11/13 05:34:27;;;;;;;;;;;;;;;;;;2192861;67;4678;-26
2023/11/13 05:36:57;;;;;;;;;;;;;;;;;;2192167;59;3360;-26
2023/11/13 05:39:27;;;;;;;;;;;;;;;;;;2193758;59;2428;-38
2023/11/13 05:41:57;;;;;;;;;;;;;;;;;;2192373;59;3903;-26
2023/11/13 05:44:28;;;;;;;;;;;;;;;;;;2193500;59;3299;-27
2023/11/13 05:46:59;;;;;;;;;;;;;;;;;;2192556;67;2293;-27
2023/11/13 05:49:30;;;;;;;;;;;;;;;;;;2193702;67;3979;-27
2023/11/13 05:52:01;;;;;;;;;;;;;;;;;;2197915;67;2877;-27
2023/11/13 05:54:31;;;;;;;;;;;;;;;;;;2192660;59;2518;-28
2023/11/13 05:57:01;;;;;;;;;;;;;;;;;;2192547;59;3871;-29
2023/11/13 05:59:31;;;;;;;;;;;;;;;;;;2193529;67;2330;-27
2023/11/13 06:02:02;;;;;;;;;;;;;;;;;;2192635;59;3268;-27
2023/11/13 06:04:35;;;;;;;;;;;;;;;;;;2194144;59;1975;-27
2023/11/13 06:07:06;;;;;;;;;;;;;;;;;;2192817;59;2808;-27
2023/11/13 06:09:38;;;;;;;;;;;;;;;;;;2196240;67;1956;-27
2023/11/13 06:12:10;;;;;;;;;;;;;;;;;;2198362;67;2694;-27
2023/11/13 06:14:40;;;;;;;;;;;;;;;;;;2192162;59;2052;-27
2023/11/13 06:17:11;;;;;;;;;;;;;;;;;;2194000;59;2010;-27
2023/11/13 06:19:41;;;;;;;;;;;;;;;;;;2194440;59;2563;-27
2023/11/13 06:22:12;;;;;;;;;;;;;;;;;;2193861;59;2135;-26
2023/11/13 06:24:42;;;;;;;;;;;;;;;;;;2194248;59;3167;-26
2023/11/13 06:27:12;;;;;;;;;;;;;;;;;;2199091;67;1975;-26
2023/11/13 06:29:44;;;;;;;;;;;;;;;;;;2193339;59;3087;-26
2023/11/13 06:32:14;;;;;;;;;;;;;;;;;;2193858;59;3092;-26
2023/11/13 06:34:44;;;;;;;;;;;;;;;;;;2193847;59;2042;-26
2023/11/13 06:37:15;;;;;;;;;;;;;;;;;;2193682;59;2267;-26
2023/11/13 06:39:45;;;;;;;;;;;;;;;;;;2194079;59;1966;-28
2023/11/13 06:42:16;;;;;;;;;;;;;;;;;;2193587;59;2733;-26
2023/11/13 06:44:46;;;;;;;;;;;;;;;;;;2193202;59;2745;-26
2023/11/13 06:47:16;;;;;;;;;;;;;;;;;;2193510;59;2832;-27
2023/11/13 06:49:46;;;;;;;;;;;;;;;;;;2193409;59;1923;-27
2023/11/13 06:52:17;;;;;;;;;;;;;;;;;;2193526;67;2914;-26
2023/11/13 06:54:47;;;;;;;;;;;;;;;;;;2193832;67;1766;-26
2023/11/13 06:57:17;;;;;;;;;;;;;;;;;;2193221;67;2528;-26
2023/11/13 06:59:47;;;;;;;;;;;;;;;;;;2193628;67;1894;-26
2023/11/13 07:02:19;;;;;;;;;;;;;;;;;;2193483;59;2434;-26
2023/11/13 07:04:49;;;;;;;;;;;;;;;;;;2193203;67;3261;-26
2023/11/13 07:07:19;;;;;;;;;;;;;;;;;;2192869;67;2084;-26
2023/11/13 07:09:50;;;;;;;;;;;;;;;;;;2192952;67;3808;-26
2023/11/13 07:12:20;;;;;;;;;;;;;;;;;;2192873;67;2201;-26
2023/11/13 07:14:51;;;;;;;;;;;;;;;;;;2198068;67;2309;-26
2023/11/13 07:17:21;;;;;;;;;;;;;;;;;;2193382;67;1999;-26
2023/11/13 07:19:52;;;;;;;;;;;;;;;;;;2192736;67;2275;-26
2023/11/13 07:22:22;;;;;;;;;;;;;;;;;;2193758;59;2095;-26
2023/11/13 07:24:53;;;;;;;;;;;;;;;;;;2192368;67;3542;-26
2023/11/13 07:27:23;;;;;;;;;;;;;;;;;;2193657;59;2897;-26
2023/11/13 07:29:54;;;;;;;;;;;;;;;;;;2192937;59;3027;-26
2023/11/13 07:32:27;;;;;;;;;;;;;;;;;;2193432;59;1936;-26
2023/11/13 07:34:57;;;;;;;;;;;;;;;;;;2198053;67;1793;-26
2023/11/13 07:37:28;;;;;;;;;;;;;;;;;;2193819;59;2255;-26
2023/11/13 07:39:59;;;;;;;;;;;;;;;;;;2193163;59;2646;-26
2023/11/13 07:42:29;;;;;;;;;;;;;;;;;;2194248;67;2715;-26
2023/11/13 07:44:59;;;;;;;;;;;;;;;;;;2192251;59;2790;-28
2023/11/13 07:47:30;;;;;;;;;;;;;;;;;;2194007;59;2416;-26
2023/11/13 07:50:00;;;;;;;;;;;;;;;;;;2198433;67;1952;-27
2023/11/13 07:52:31;;;;;;;;;;;;;;;;;;2194043;59;1988;-28
2023/11/13 07:55:01;;;;;;;;;;;;;;;;;;2192766;67;4525;-27
2023/11/13 07:57:31;;;;;;;;;;;;;;;;;;2192242;67;4000;-26
2023/11/13 08:00:03;;;;;;;;;;;;;;;;;;2192402;67;2752;-26
2023/11/13 08:02:34;;;;;;;;;;;;;;;;;;2194149;59;3609;-26
2023/11/13 08:05:04;;;;;;;;;;;;;;;;;;2192457;67;4074;-26
2023/11/13 08:07:37;;;;;;;;;;;;;;;;;;2192976;67;2010;-26
2023/11/13 08:10:12;;;;;;;;;;;;;;;;;;2193042;67;2913;-26
2023/11/13 08:12:43;;;;;;;;;;;;;;;;;;2198911;67;2001;-26
2023/11/13 08:15:13;;;;;;;;;;;;;;;;;;2192529;67;4070;-26
2023/11/13 08:17:44;;;;;;;;;;;;;;;;;;2193077;67;1827;-26
2023/11/13 08:20:15;;;;;;;;;;;;;;;;;;2191944;67;4177;-26
2023/11/13 08:22:47;;;;;;;;;;;;;;;;;;2193496;59;1872;-26
2023/11/13 08:25:17;;;;;;;;;;;;;;;;;;2193100;59;1867;-26
2023/11/13 08:27:47;;;;;;;;;;;;;;;;;;2195179;59;4321;-26
2023/11/13 08:30:22;;;;;;;;;;;;;;;;;;2194718;59;3840;-26
2023/11/13 08:32:52;;;;;;;;;;;;;;;;;;2194280;59;3125;-26
2023/11/13 08:35:22;;;;;;;;;;;;;;;;;;2194654;59;2059;-27
2023/11/13 08:37:52;;;;;;;;;;;;;;;;;;2193255;59;2707;-26
2023/11/13 08:40:26;;;;;;;;;;;;;;;;;;2194543;59;2849;-26
2023/11/13 08:42:56;;;;;;;;;;;;;;;;;;2193161;67;4303;-29
2023/11/13 08:45:27;;;;;;;;;;;;;;;;;;2194512;59;3251;-27
2023/11/13 08:47:59;;;;;;;;;;;;;;;;;;2193940;67;4199;-27
2023/11/13 08:50:30;;;;;;;;;;;;;;;;;;2194603;67;1918;-27
2023/11/13 08:53:01;;;;;;;;;;;;;;;;;;2193015;67;4048;-27
2023/11/13 08:55:35;;;;;;;;;;;;;;;;;;2194835;67;2518;-27
2023/11/13 08:58:07;;;;;;;;;;;;;;;;;;2200345;67;2461;-29
2023/11/13 09:00:44;;;;;;;;;;;;;;;;;;2196066;67;1848;-29
2023/11/13 09:03:16;;;;;;;;;;;;;;;;;;2193917;59;3661;-27
2023/11/13 09:05:46;;;;;;;;;;;;;;;;;;2195414;67;2878;-27
2023/11/13 09:08:17;;;;;;;;;;;;;;;;;;2194835;59;3162;-27
2023/11/13 09:10:47;;;;;;;;;;;;;;;;;;2193726;59;3064;-27
2023/11/13 09:13:18;;;;;;;;;;;;;;;;;;2193069;67;2468;-27
2023/11/13 09:15:49;;;;;;;;;;;;;;;;;;2199100;67;2607;-27
2023/11/13 09:18:23;;;;;;;;;;;;;;;;;;2192523;67;2659;-27
2023/11/13 09:20:54;;;;;;;;;;;;;;;;;;2193961;59;2539;-25
2023/11/13 09:23:26;;;;;;;;;;;;;;;;;;2197901;67;2809;-25
2023/11/13 09:25:56;;;;;;;;;;;;;;;;;;2188017;59;2794;-25
2023/11/13 09:28:26;;;;;;;;;;;;;;;;;;2192080;59;2197;-26
2023/11/13 09:30:57;;;;;;;;;;;;;;;;;;2197625;59;2977;-25
2023/11/13 09:33:28;;;;;;;;;;;;;;;;;;2192656;59;2571;-25
2023/11/13 09:35:58;;;;;;;;;;;;;;;;;;2191113;59;3242;-26
2023/11/13 09:38:31;;;;;;;;;;;;;;;;;;2191607;59;3901;-25
2023/11/13 09:41:03;;;;;;;;;;;;;;;;;;2190395;59;3170;-25
2023/11/13 09:43:35;;;;;;;;;;;;;;;;;;2192749;59;2354;-25
2023/11/13 09:46:08;;;;;;;;;;;;;;;;;;2191451;67;4270;-25
2023/11/13 09:48:43;;;;;;;;;;;;;;;;;;2193112;67;2569;-25
2023/11/13 09:51:16;;;;;;;;;;;;;;;;;;2191302;59;2845;-25
2023/11/13 09:53:47;;;;;;;;;;;;;;;;;;2192715;67;2450;-25
2023/11/13 09:56:18;;;;;;;;;;;;;;;;;;2197732;67;3863;-25
2023/11/13 09:58:49;;;;;;;;;;;;;;;;;;2193780;67;2152;-25
2023/11/13 10:01:21;;;;;;;;;;;;;;;;;;2191495;67;2825;-25
2023/11/13 10:03:51;;;;;;;;;;;;;;;;;;2193313;59;3024;-26
2023/11/13 10:06:22;;;;;;;;;;;;;;;;;;2191371;59;3158;-26
2023/11/13 10:08:53;;;;;;;;;;;;;;;;;;2193513;67;3706;-25
2023/11/13 10:11:28;;;;;;;;;;;;;;;;;;2190584;67;1938;-25
2023/11/13 10:14:09;;;;;;;;;;;;;;;;;;2197540;59;2258;-25
2023/11/13 10:16:39;;;;;;;;;;;;;;;;;;2192940;67;2909;-25
2023/11/13 10:19:18;;;;;;;;;;;;;;;;;;2191630;67;2242;-25
2023/11/13 10:21:51;;;;;;;;;;;;;;;;;;2193439;59;2807;-25
2023/11/13 10:24:23;;;;;;;;;;;;;;;;;;2191552;59;2646;-25
2023/11/13 10:26:57;;;;;;;;;;;;;;;;;;2192542;59;3453;-25
2023/11/13 10:29:30;;;;;;;;;;;;;;;;;;2191920;59;3130;-25
2023/11/13 10:32:01;;;;;;;;;;;;;;;;;;2191408;59;3255;-25
2023/11/13 10:34:44;;;;;;;;;;;;;;;;;;2192254;59;2211;-25
2023/11/13 10:37:18;;;;;;;;;;;;;;;;;;2191781;59;2847;-25
2023/11/13 10:39:48;;;;;;;;;;;;;;;;;;2193164;59;2572;-25
2023/11/13 10:42:22;;;;;;;;;;;;;;;;;;2191023;59;2279;-25
2023/11/13 10:44:54;;;;;;;;;;;;;;;;;;2193208;59;2351;-25
2023/11/13 10:47:30;;;;;;;;;;;;;;;;;;2192136;67;3278;-25
2023/11/13 10:50:01;;;;;;;;;;;;;;;;;;2198058;67;2547;-25
2023/11/13 10:52:32;;;;;;;;;;;;;;;;;;2192150;59;2969;-25
2023/11/13 10:55:04;;;;;;;;;;;;;;;;;;2192560;59;4490;-25
2023/11/13 10:57:34;;;;;;;;;;;;;;;;;;2191880;67;1569;-25
2023/11/13 11:00:05;;;;;;;;;;;;;;;;;;2192549;67;2668;-26
2023/11/13 11:02:36;;;;;;;;;;;;;;;;;;2193691;59;2731;-25
2023/11/13 11:05:10;;;;;;;;;;;;;;;;;;2191838;59;3577;-25
2023/11/13 11:07:43;;;;;;;;;;;;;;;;;;2193080;67;3010;-25
2023/11/13 11:10:13;;;;;;;;;;;;;;;;;;2192105;67;3141;-26
2023/11/13 11:12:47;;;;;;;;;;;;;;;;;;2193013;67;3010;-26
2023/11/13 11:15:26;;;;;;;;;;;;;;;;;;2194692;67;4190;-27
2023/11/13 11:18:13;;;;;;;;;;;;;;;;;;2198935;67;2019;-26
2023/11/13 11:20:51;;;;;;;;;;;;;;;;;;2193969;59;2816;-26
2023/11/13 11:23:25;;;;;;;;;;;;;;;;;;2190384;67;2848;-26
2023/11/13 11:25:59;;;;;;;;;;;;;;;;;;2193824;67;3303;-27
2023/11/13 11:28:48;;;;;;;;;;;;;;;;;;2194644;59;2097;-27
2023/11/13 11:31:37;;;;;;;;;;;;;;;;;;2190932;59;2519;-26
2023/11/13 11:34:08;;;;;;;;;;;;;;;;;;2192216;59;2824;-26
2023/11/13 11:36:40;;;;;;;;;;;;;;;;;;2193184;59;4389;-26
2023/11/13 11:39:18;;;;;;;;;;;;;;;;;;2192057;59;2664;-26
2023/11/13 11:41:53;;;;;;;;;;;;;;;;;;2192440;59;2323;-26
2023/11/13 11:44:23;;;;;;;;;;;;;;;;;;2189969;59;3008;-26
2023/11/13 11:46:54;;;;;;;;;;;;;;;;;;2193563;67;2579;-26
2023/11/13 11:49:28;;;;;;;;;;;;;;;;;;2191841;59;2800;-26
2023/11/13 11:51:59;;;;;;;;;;;;;;;;;;2191695;59;3068;-25
2023/11/13 11:54:33;;;;;;;;;;;;;;;;;;2191062;67;3084;-26
2023/11/13 11:57:06;;;;;;;;;;;;;;;;;;2198154;59;1907;-25
2023/11/13 11:59:36;;;;;;;;;;;;;;;;;;2192579;67;2185;-26
2023/11/13 12:02:07;;;;;;;;;;;;;;;;;;2197676;59;4003;-25
2023/11/13 12:04:38;;;;;;;;;;;;;;;;;;2192936;59;2568;-25
2023/11/13 12:07:14;;;;;;;;;;;;;;;;;;2194816;67;2976;-25
2023/11/13 12:09:44;;;;;;;;;;;;;;;;;;2193563;67;2750;-25
2023/11/13 12:12:19;;;;;;;;;;;;;;;;;;2191814;67;3010;-25
2023/11/13 12:14:49;;;;;;;;;;;;;;;;;;2192307;59;2510;-25
2023/11/13 12:17:20;;;;;;;;;;;;;;;;;;2192409;67;2710;-25
2023/11/13 12:19:51;;;;;;;;;;;;;;;;;;2193768;59;3363;-25
2023/11/13 12:22:21;;;;;;;;;;;;;;;;;;2193012;59;1884;-26
2023/11/13 12:24:51;;;;;;;;;;;;;;;;;;2194233;67;2814;-25
2023/11/13 12:27:24;;;;;;;;;;;;;;;;;;2193016;67;2024;-25
2023/11/13 12:30:04;;;;;;;;;;;;;;;;;;2193988;59;2324;-25
2023/11/13 12:32:35;;;;;;;;;;;;;;;;;;2193416;67;2478;-25
2023/11/13 12:35:05;;;;;;;;;;;;;;;;;;2192488;67;3979;-25
2023/11/13 12:37:35;;;;;;;;;;;;;;;;;;2193167;59;2696;-25
2023/11/13 12:40:06;;;;;;;;;;;;;;;;;;2192369;59;3539;-25
2023/11/13 12:42:38;;;;;;;;;;;;;;;;;;2192034;59;3194;-26
2023/11/13 12:45:12;;;;;;;;;;;;;;;;;;2191614;59;2636;-25
2023/11/13 12:47:44;;;;;;;;;;;;;;;;;;2192688;67;2850;-26
2023/11/13 12:50:16;;;;;;;;;;;;;;;;;;2192684;67;5049;-26
2023/11/13 12:52:48;;;;;;;;;;;;;;;;;;2197803;59;3129;-26
2023/11/13 12:55:19;;;;;;;;;;;;;;;;;;2192057;67;2908;-26
2023/11/13 12:57:50;;;;;;;;;;;;;;;;;;2193285;59;2722;-26
2023/11/13 13:00:21;;;;;;;;;;;;;;;;;;2192731;59;2849;-26
2023/11/13 13:02:52;;;;;;;;;;;;;;;;;;2193823;59;2411;-26
2023/11/13 13:05:23;;;;;;;;;;;;;;;;;;2191784;67;2869;-26
2023/11/13 13:07:54;;;;;;;;;;;;;;;;;;2192958;59;1932;-26
2023/11/13 13:10:24;;;;;;;;;;;;;;;;;;2191464;67;2528;-28
2023/11/13 13:12:54;;;;;;;;;;;;;;;;;;2193024;67;2523;-25
2023/11/13 13:15:27;;;;;;;;;;;;;;;;;;2190628;59;3560;-27
2023/11/13 13:18:02;;;;;;;;;;;;;;;;;;2193131;67;2303;-27
2023/11/13 13:20:33;;;;;;;;;;;;;;;;;;2191352;59;1908;-27
2023/11/13 13:23:03;;;;;;;;;;;;;;;;;;2192318;59;2415;-27
2023/11/13 13:25:36;;;;;;;;;;;;;;;;;;2190964;59;2056;-27
2023/11/13 13:28:09;;;;;;;;;;;;;;;;;;2194848;59;2797;-27
2023/11/13 13:30:39;;;;;;;;;;;;;;;;;;2191144;59;2581;-27
2023/11/13 13:33:10;;;;;;;;;;;;;;;;;;2192124;59;2042;-27
2023/11/13 13:35:40;;;;;;;;;;;;;;;;;;2197623;59;4275;-25
2023/11/13 13:38:11;;;;;;;;;;;;;;;;;;2192436;59;2578;-24
2023/11/13 13:40:41;;;;;;;;;;;;;;;;;;2191169;59;2376;-27
2023/11/13 13:43:11;;;;;;;;;;;;;;;;;;2192073;67;1847;-27
2023/11/13 13:45:45;;;;;;;;;;;;;;;;;;2192666;67;1862;-27
2023/11/13 13:48:16;;;;;;;;;;;;;;;;;;2197438;67;2123;-24
2023/11/13 13:50:47;;;;;;;;;;;;;;;;;;2192983;67;2418;-25
2023/11/13 13:53:20;;;;;;;;;;;;;;;;;;2192047;67;1831;-24
2023/11/13 13:55:50;;;;;;;;;;;;;;;;;;2198418;67;2687;-24
2023/11/13 13:58:22;;;;;;;;;;;;;;;;;;2197574;67;2909;-26
2023/11/13 14:00:53;;;;;;;;;;;;;;;;;;2193055;67;2602;-27
2023/11/13 14:03:24;;;;;;;;;;;;;;;;;;2192242;59;3785;-26
2023/11/13 14:05:55;;;;;;;;;;;;;;;;;;2192677;59;4063;-24
2023/11/13 14:08:25;;;;;;;;;;;;;;;;;;2192125;59;2714;-24
2023/11/13 14:10:56;;;;;;;;;;;;;;;;;;2193193;59;3102;-24
2023/11/13 14:13:27;;;;;;;;;;;;;;;;;;2191915;67;2022;-24
2023/11/13 14:15:57;;;;;;;;;;;;;;;;;;2192426;67;2888;-24
2023/11/13 14:18:27;;;;;;;;;;;;;;;;;;2191926;67;4166;-26
2023/11/13 14:20:57;;;;;;;;;;;;;;;;;;2198695;59;2984;-24
2023/11/13 14:23:28;;;;;;;;;;;;;;;;;;2198618;67;2067;-24
2023/11/13 14:25:58;;;;;;;;;;;;;;;;;;2197627;59;2251;-24
2023/11/13 14:28:30;;;;;;;;;;;;;;;;;;2191090;59;2560;-24
2023/11/13 14:31:00;;;;;;;;;;;;;;;;;;2193654;59;3305;-24
2023/11/13 14:33:31;;;;;;;;;;;;;;;;;;2192151;59;2139;-24
2023/11/13 14:36:03;;;;;;;;;;;;;;;;;;2193602;59;2006;-24
2023/11/13 14:38:34;;;;;;;;;;;;;;;;;;2192443;67;1985;-26
2023/11/13 14:41:04;;;;;;;;;;;;;;;;;;2194370;59;1896;-26
2023/11/13 14:43:34;;;;;;;;;;;;;;;;;;2192895;59;2049;-24
2023/11/13 14:46:06;;;;;;;;;;;;;;;;;;2194323;67;1475;-24
2023/11/13 14:48:36;;;;;;;;;;;;;;;;;;2192893;67;2007;-24
2023/11/13 14:51:06;;;;;;;;;;;;;;;;;;2194224;67;1996;-24
2023/11/13 14:53:36;;;;;;;;;;;;;;;;;;2195245;67;4020;-24
2023/11/13 14:56:09;;;;;;;;;;;;;;;;;;2197519;59;2213;-24
2023/11/13 14:58:39;;;;;;;;;;;;;;;;;;2194614;59;3418;-26
2023/11/13 15:01:09;;;;;;;;;;;;;;;;;;2198890;67;2412;-26
2023/11/13 15:03:40;;;;;;;;;;;;;;;;;;2191743;59;2342;-26
2023/11/13 15:06:10;;;;;;;;;;;;;;;;;;2193427;67;3160;-26
2023/11/13 15:08:41;;;;;;;;;;;;;;;;;;2191499;59;3827;-26
2023/11/13 15:11:12;;;;;;;;;;;;;;;;;;2193479;59;2180;-26
2023/11/13 15:13:44;;;;;;;;;;;;;;;;;;2191890;59;2694;-24
2023/11/13 15:16:16;;;;;;;;;;;;;;;;;;2193364;67;2788;-25
2023/11/13 15:18:46;;;;;;;;;;;;;;;;;;2191256;67;2349;-26
2023/11/13 15:21:17;;;;;;;;;;;;;;;;;;2191633;59;2615;-26
2023/11/13 15:23:48;;;;;;;;;;;;;;;;;;2192611;67;3451;-26
2023/11/13 15:26:18;;;;;;;;;;;;;;;;;;2196933;67;3004;-25
2023/11/13 15:28:48;;;;;;;;;;;;;;;;;;2192714;59;2666;-26
2023/11/13 15:31:18;;;;;;;;;;;;;;;;;;2190966;67;2864;-26
2023/11/13 15:33:49;;;;;;;;;;;;;;;;;;2192627;59;2923;-26
2023/11/13 15:36:20;;;;;;;;;;;;;;;;;;2191976;67;2917;-25
2023/11/13 15:38:51;;;;;;;;;;;;;;;;;;2192425;59;2192;-26
2023/11/13 15:41:23;;;;;;;;;;;;;;;;;;2191238;59;2178;-25
2023/11/13 15:43:53;;;;;;;;;;;;;;;;;;2193380;59;2583;-26
2023/11/13 15:46:24;;;;;;;;;;;;;;;;;;2192224;59;2813;-26
2023/11/13 15:48:54;;;;;;;;;;;;;;;;;;2192634;59;4341;-25
2023/11/13 15:51:24;;;;;;;;;;;;;;;;;;2191824;59;2655;-25
2023/11/13 15:53:55;;;;;;;;;;;;;;;;;;2192705;59;2100;-25
2023/11/13 15:56:25;;;;;;;;;;;;;;;;;;2192350;59;3654;-25
2023/11/13 15:58:56;;;;;;;;;;;;;;;;;;2198447;59;2800;-25
2023/11/13 16:01:26;;;;;;;;;;;;;;;;;;2192251;67;3370;-25
2023/11/13 16:03:57;;;;;;;;;;;;;;;;;;2192952;59;2870;-25
2023/11/13 16:06:27;;;;;;;;;;;;;;;;;;2191618;59;2210;-26
2023/11/13 16:08:59;;;;;;;;;;;;;;;;;;2193206;67;1835;-26
2023/11/13 16:11:29;;;;;;;;;;;;;;;;;;2197532;67;3991;-25
2023/11/13 16:14:00;;;;;;;;;;;;;;;;;;2194003;59;3016;-26
2023/11/13 16:16:30;;;;;;;;;;;;;;;;;;2188691;59;2152;-25
2023/11/13 16:19:00;;;;;;;;;;;;;;;;;;2192195;59;2879;-25
2023/11/13 16:21:31;;;;;;;;;;;;;;;;;;2191562;59;3766;-26
2023/11/13 16:24:02;;;;;;;;;;;;;;;;;;2193182;59;3527;-25
2023/11/13 16:26:32;;;;;;;;;;;;;;;;;;2192316;67;3009;-25
2023/11/13 16:29:08;;;;;;;;;;;;;;;;;;2191291;59;2461;-25
2023/11/13 16:31:38;;;;;;;;;;;;;;;;;;2191574;59;2942;-26
2023/11/13 16:34:10;;;;;;;;;;;;;;;;;;2192004;59;2977;-24
2023/11/13 16:36:40;;;;;;;;;;;;;;;;;;2192098;67;2591;-24
2023/11/13 16:39:12;;;;;;;;;;;;;;;;;;2193111;67;2768;-24
2023/11/13 16:41:42;;;;;;;;;;;;;;;;;;2191499;59;2473;-23
2023/11/13 16:44:13;;;;;;;;;;;;;;;;;;2193377;59;3094;-24
2023/11/13 16:46:44;;;;;;;;;;;;;;;;;;2194297;59;2404;-24
2023/11/13 16:49:16;;;;;;;;;;;;;;;;;;2193871;59;2705;-24
2023/11/13 16:51:48;;;;;;;;;;;;;;;;;;2191686;59;3794;-24
2023/11/13 16:54:18;;;;;;;;;;;;;;;;;;2191757;59;2481;-23
2023/11/13 16:56:48;;;;;;;;;;;;;;;;;;2191274;59;2689;-24
2023/11/13 16:59:19;;;;;;;;;;;;;;;;;;2192288;59;3619;-24
2023/11/13 17:01:49;;;;;;;;;;;;;;;;;;2192535;67;2024;-24
2023/11/13 17:04:19;;;;;;;;;;;;;;;;;;2191662;59;3492;-24
2023/11/13 17:06:50;;;;;;;;;;;;;;;;;;2191782;59;3544;-24
2023/11/13 17:09:20;;;;;;;;;;;;;;;;;;2198276;67;3311;-24
2023/11/13 17:11:51;;;;;;;;;;;;;;;;;;2197846;67;4411;-24
2023/11/13 17:14:22;;;;;;;;;;;;;;;;;;2197524;63;2857;-24
2023/11/13 17:16:53;;;;;;;;;;;;;;;;;;2192504;67;2079;-24
2023/11/13 17:19:25;;;;;;;;;;;;;;;;;;2191057;59;2237;-24
2023/11/13 17:21:55;;;;;;;;;;;;;;;;;;2192793;59;2557;-24
2023/11/13 17:24:26;;;;;;;;;;;;;;;;;;2192203;59;2856;-24
2023/11/13 17:26:56;;;;;;;;;;;;;;;;;;2189974;67;3826;-24
2023/11/13 17:29:26;;;;;;;;;;;;;;;;;;2191833;59;3948;-24